sensor_id;sensor_type;location;lat;lon;timestamp;pressure;altitude;pressure_sealevel;temperature;humidity
60307;BME280;46155;52.364;6.580;2023-07-13T03:01:32;101075.13;;;15.41;100.00
60307;BME280;46155;52.364;6.580;2023-07-13T03:03:57;101070.53;;;15.37;100.00
60307;BME280;46155;52.364;6.580;2023-07-13T03:06:23;101075.81;;;15.37;100.00
60307;BME280;46155;52.364;6.580;2023-07-13T03:08:49;101077.75;;;15.41;100.00
60307;BME280;46155;52.364;6.580;2023-07-13T03:11:19;101083.06;;;15.41;100.00
60307;BME280;46155;52.364;6.580;2023-07-13T03:13:45;101077.75;;;15.41;100.00
60307;BME280;46155;52.364;6.580;2023-07-13T03:16:11;101081.25;;;15.40;100.00
60307;BME280;46155;52.364;6.580;2023-07-13T03:18:37;101086.41;;;15.37;100.00
60307;BME280;46155;52.364;6.580;2023-07-13T03:21:03;101089.88;;;15.36;100.00
60307;BME280;46155;52.364;6.580;2023-07-13T03:23:30;101089.72;;;15.33;100.00
60307;BME280;46155;52.364;6.580;2023-07-13T03:26:11;101091.56;;;15.34;100.00
60307;BME280;46155;52.364;6.580;2023-07-13T03:28:38;101082.41;;;15.27;100.00
60307;BME280;46155;52.364;6.580;2023-07-13T03:31:10;101093.06;;;15.29;100.00
60307;BME280;46155;52.364;6.580;2023-07-13T03:33:36;101091.09;;;15.25;100.00
60307;BME280;46155;52.364;6.580;2023-07-13T03:36:03;101095.44;;;15.23;100.00
60307;BME280;46155;52.364;6.580;2023-07-13T03:38:30;101103.25;;;15.20;100.00
60307;BME280;46155;52.364;6.580;2023-07-13T03:40:55;101103.84;;;15.14;100.00
60307;BME280;46155;52.364;6.580;2023-07-13T03:43:20;101102.03;;;15.13;100.00
60307;BME280;46155;52.364;6.580;2023-07-13T03:45:47;101106.41;;;15.12;100.00
60307;BME280;46155;52.364;6.580;2023-07-13T03:48:13;101112.53;;;15.11;100.00
60307;BME280;46155;52.364;6.580;2023-07-13T03:50:39;101115.31;;;15.14;100.00
60307;BME280;46155;52.364;6.580;2023-07-13T03:53:04;101119.63;;;15.12;100.00
60307;BME280;46155;52.364;6.580;2023-07-13T03:55:30;101120.75;;;15.18;100.00
60307;BME280;46155;52.364;6.580;2023-07-13T03:58:23;101110.84;;;15.13;100.00
60307;BME280;46155;52.364;6.580;2023-07-13T04:00:46;101109.91;;;15.11;100.00
60307;BME280;46155;52.364;6.580;2023-07-13T04:03:11;101121.44;;;15.13;100.00
60307;BME280;46155;52.364;6.580;2023-07-13T04:05:37;101119.47;;;15.09;100.00
60307;BME280;46155;52.364;6.580;2023-07-13T04:08:05;101127.56;;;15.12;100.00
60307;BME280;46155;52.364;6.580;2023-07-13T04:10:31;101130.19;;;15.12;100.00
60307;BME280;46155;52.364;6.580;2023-07-13T04:12:56;101126.66;;;15.12;100.00
60307;BME280;46155;52.364;6.580;2023-07-13T04:15:22;101132.00;;;15.13;100.00
60307;BME280;46155;52.364;6.580;2023-07-13T04:17:47;101130.38;;;15.15;100.00
60307;BME280;46155;52.364;6.580;2023-07-13T04:20:12;101132.84;;;15.12;100.00
60307;BME280;46155;52.364;6.580;2023-07-13T04:22:38;101138.06;;;15.11;100.00
60307;BME280;46155;52.364;6.580;2023-07-13T04:25:03;101130.97;;;15.10;100.00
60307;BME280;46155;52.364;6.580;2023-07-13T04:27:30;101137.16;;;15.10;100.00
60307;BME280;46155;52.364;6.580;2023-07-13T04:29:56;101131.81;;;15.09;100.00
60307;BME280;46155;52.364;6.580;2023-07-13T04:32:21;101139.66;;;15.07;100.00
60307;BME280;46155;52.364;6.580;2023-07-13T04:34:46;101137.09;;;15.09;100.00
60307;BME280;46155;52.364;6.580;2023-07-13T04:37:12;101136.28;;;15.10;100.00
60307;BME280;46155;52.364;6.580;2023-07-13T04:39:37;101144.22;;;15.10;100.00
60307;BME280;46155;52.364;6.580;2023-07-13T04:42:03;101144.28;;;15.11;100.00
60307;BME280;46155;52.364;6.580;2023-07-13T04:44:29;101147.75;;;15.10;100.00
60307;BME280;46155;52.364;6.580;2023-07-13T04:46:54;101148.69;;;15.12;100.00
60307;BME280;46155;52.364;6.580;2023-07-13T04:49:20;101148.69;;;15.30;100.00
60307;BME280;46155;52.364;6.580;2023-07-13T04:51:45;101145.78;;;15.44;100.00
60307;BME280;46155;52.364;6.580;2023-07-13T04:54:10;101151.97;;;15.44;100.00
60307;BME280;46155;52.364;6.580;2023-07-13T04:56:36;101148.38;;;15.42;100.00
60307;BME280;46155;52.364;6.580;2023-07-13T04:59:01;101155.19;;;15.37;100.00
60307;BME280;46155;52.364;6.580;2023-07-13T05:01:27;101156.53;;;15.29;100.00
60307;BME280;46155;52.364;6.580;2023-07-13T05:03:52;101155.66;;;15.28;100.00
60307;BME280;46155;52.364;6.580;2023-07-13T05:06:17;101166.22;;;15.28;100.00
60307;BME280;46155;52.364;6.580;2023-07-13T05:08:43;101169.84;;;15.30;100.00
60307;BME280;46155;52.364;6.580;2023-07-13T05:11:08;101167.25;;;15.32;100.00
60307;BME280;46155;52.364;6.580;2023-07-13T05:13:34;101166.50;;;15.35;100.00
60307;BME280;46155;52.364;6.580;2023-07-13T05:16:03;101162.28;;;15.38;100.00
60307;BME280;46155;52.364;6.580;2023-07-13T05:18:29;101168.69;;;15.43;100.00
60307;BME280;46155;52.364;6.580;2023-07-13T05:21:00;101174.03;;;15.45;100.00
60307;BME280;46155;52.364;6.580;2023-07-13T05:23:26;101173.28;;;15.47;100.00
60307;BME280;46155;52.364;6.580;2023-07-13T05:25:52;101177.19;;;15.56;100.00
60307;BME280;46155;52.364;6.580;2023-07-13T05:28:17;101176.56;;;15.61;100.00
60307;BME280;46155;52.364;6.580;2023-07-13T05:30:49;101170.66;;;15.67;100.00
60307;BME280;46155;52.364;6.580;2023-07-13T05:33:15;101177.00;;;15.71;100.00
60307;BME280;46155;52.364;6.580;2023-07-13T05:35:41;101175.41;;;15.74;100.00
60307;BME280;46155;52.364;6.580;2023-07-13T05:38:06;101173.91;;;15.79;100.00
60307;BME280;46155;52.364;6.580;2023-07-13T05:40:32;101180.16;;;15.81;100.00
60307;BME280;46155;52.364;6.580;2023-07-13T05:42:57;101179.72;;;15.92;100.00
60307;BME280;46155;52.364;6.580;2023-07-13T05:45:22;101186.16;;;15.97;100.00
60307;BME280;46155;52.364;6.580;2023-07-13T05:47:48;101183.84;;;16.05;100.00
60307;BME280;46155;52.364;6.580;2023-07-13T05:50:13;101182.38;;;16.11;100.00
60307;BME280;46155;52.364;6.580;2023-07-13T05:52:39;101173.72;;;16.15;100.00
60307;BME280;46155;52.364;6.580;2023-07-13T05:55:05;101189.97;;;16.23;100.00
60307;BME280;46155;52.364;6.580;2023-07-13T05:57:30;101188.53;;;16.31;100.00
60307;BME280;46155;52.364;6.580;2023-07-13T05:59:56;101185.41;;;16.40;100.00
60307;BME280;46155;52.364;6.580;2023-07-13T06:02:21;101194.16;;;16.59;100.00
60307;BME280;46155;52.364;6.580;2023-07-13T06:04:47;101197.44;;;16.74;100.00
60307;BME280;46155;52.364;6.580;2023-07-13T06:07:12;101199.19;;;16.95;100.00
60307;BME280;46155;52.364;6.580;2023-07-13T06:09:37;101199.72;;;17.07;100.00
60307;BME280;46155;52.364;6.580;2023-07-13T06:12:04;101205.47;;;17.19;100.00
60307;BME280;46155;52.364;6.580;2023-07-13T06:14:30;101207.75;;;17.31;100.00
60307;BME280;46155;52.364;6.580;2023-07-13T06:16:55;101205.63;;;17.45;100.00
60307;BME280;46155;52.364;6.580;2023-07-13T06:19:21;101213.06;;;17.54;100.00
60307;BME280;46155;52.364;6.580;2023-07-13T06:21:46;101201.88;;;17.63;100.00
60307;BME280;46155;52.364;6.580;2023-07-13T06:24:11;101213.91;;;17.77;100.00
60307;BME280;46155;52.364;6.580;2023-07-13T06:26:37;101218.91;;;17.91;100.00
60307;BME280;46155;52.364;6.580;2023-07-13T06:29:02;101225.31;;;17.97;100.00
60307;BME280;46155;52.364;6.580;2023-07-13T06:31:28;101228.34;;;18.06;100.00
60307;BME280;46155;52.364;6.580;2023-07-13T06:33:53;101226.94;;;18.16;100.00
60307;BME280;46155;52.364;6.580;2023-07-13T06:36:19;101233.53;;;18.28;100.00
60307;BME280;46155;52.364;6.580;2023-07-13T06:38:44;101240.88;;;18.35;100.00
60307;BME280;46155;52.364;6.580;2023-07-13T06:41:10;101230.34;;;18.38;100.00
60307;BME280;46155;52.364;6.580;2023-07-13T06:43:35;101234.94;;;18.42;100.00
60307;BME280;46155;52.364;6.580;2023-07-13T06:46:01;101236.84;;;18.46;100.00
60307;BME280;46155;52.364;6.580;2023-07-13T06:48:26;101242.38;;;18.52;100.00
60307;BME280;46155;52.364;6.580;2023-07-13T06:50:52;101240.44;;;18.48;100.00
60307;BME280;46155;52.364;6.580;2023-07-13T06:53:19;101242.38;;;18.52;100.00
60307;BME280;46155;52.364;6.580;2023-07-13T06:55:45;101244.09;;;18.50;100.00
60307;BME280;46155;52.364;6.580;2023-07-13T06:58:12;101243.44;;;18.32;100.00
60307;BME280;46155;52.364;6.580;2023-07-13T07:00:37;101254.16;;;18.35;100.00
60307;BME280;46155;52.364;6.580;2023-07-13T07:03:05;101254.16;;;18.35;100.00
60307;BME280;46155;52.364;6.580;2023-07-13T07:05:30;101251.09;;;18.24;100.00
60307;BME280;46155;52.364;6.580;2023-07-13T07:07:56;101257.34;;;18.24;100.00
60307;BME280;46155;52.364;6.580;2023-07-13T07:10:21;101255.75;;;18.30;100.00
60307;BME280;46155;52.364;6.580;2023-07-13T07:12:47;101252.59;;;18.40;100.00
60307;BME280;46155;52.364;6.580;2023-07-13T07:15:14;101252.91;;;18.49;100.00
60307;BME280;46155;52.364;6.580;2023-07-13T07:17:40;101257.88;;;18.64;100.00
60307;BME280;46155;52.364;6.580;2023-07-13T07:20:06;101254.72;;;18.76;100.00
60307;BME280;46155;52.364;6.580;2023-07-13T07:22:32;101259.63;;;18.89;100.00
60307;BME280;46155;52.364;6.580;2023-07-13T07:24:57;101256.97;;;18.89;100.00
60307;BME280;46155;52.364;6.580;2023-07-13T07:27:23;101252.47;;;18.87;100.00
60307;BME280;46155;52.364;6.580;2023-07-13T07:29:49;101258.75;;;18.89;100.00
60307;BME280;46155;52.364;6.580;2023-07-13T07:32:15;101261.56;;;18.93;100.00
60307;BME280;46155;52.364;6.580;2023-07-13T07:34:40;101265.38;;;19.02;100.00
60307;BME280;46155;52.364;6.580;2023-07-13T07:37:06;101260.38;;;19.11;100.00
60307;BME280;46155;52.364;6.580;2023-07-13T07:39:31;101265.00;;;19.17;100.00
60307;BME280;46155;52.364;6.580;2023-07-13T07:41:57;101266.78;;;19.18;100.00
60307;BME280;46155;52.364;6.580;2023-07-13T07:44:22;101256.84;;;19.12;100.00
60307;BME280;46155;52.364;6.580;2023-07-13T07:46:48;101257.50;;;19.05;100.00
60307;BME280;46155;52.364;6.580;2023-07-13T07:49:14;101263.41;;;18.96;100.00
60307;BME280;46155;52.364;6.580;2023-07-13T07:51:40;101256.97;;;18.89;100.00
60307;BME280;46155;52.364;6.580;2023-07-13T07:54:05;101263.00;;;19.09;100.00
60307;BME280;46155;52.364;6.580;2023-07-13T07:56:31;101266.41;;;19.33;100.00
60307;BME280;46155;52.364;6.580;2023-07-13T07:58:57;101265.81;;;19.43;100.00
60307;BME280;46155;52.364;6.580;2023-07-13T08:01:23;101261.75;;;19.54;100.00
60307;BME280;46155;52.364;6.580;2023-07-13T08:03:48;101260.84;;;19.54;98.83
60307;BME280;46155;52.364;6.580;2023-07-13T08:06:14;101264.97;;;19.44;97.81
60307;BME280;46155;52.364;6.580;2023-07-13T08:08:39;101268.97;;;19.30;98.72
60307;BME280;46155;52.364;6.580;2023-07-13T08:11:06;101268.41;;;19.40;100.00
60307;BME280;46155;52.364;6.580;2023-07-13T08:13:33;101261.34;;;19.42;98.68
60307;BME280;46155;52.364;6.580;2023-07-13T08:15:59;101260.50;;;19.43;98.51
60307;BME280;46155;52.364;6.580;2023-07-13T08:18:25;101257.78;;;19.41;97.41
60307;BME280;46155;52.364;6.580;2023-07-13T08:20:53;101255.63;;;19.57;100.00
60307;BME280;46155;52.364;6.580;2023-07-13T08:23:21;101256.44;;;19.83;98.66
60307;BME280;46155;52.364;6.580;2023-07-13T08:25:53;101257.56;;;19.91;96.19
60307;BME280;46155;52.364;6.580;2023-07-13T08:28:19;101265.81;;;19.99;95.08
60307;BME280;46155;52.364;6.580;2023-07-13T08:30:45;101269.97;;;20.21;98.06
60307;BME280;46155;52.364;6.580;2023-07-13T08:33:20;101268.81;;;20.42;97.79
60307;BME280;46155;52.364;6.580;2023-07-13T08:35:50;101280.81;;;20.59;96.75
60307;BME280;46155;52.364;6.580;2023-07-13T08:38:16;101267.56;;;20.62;92.00
60307;BME280;46155;52.364;6.580;2023-07-13T08:40:43;101275.50;;;20.59;91.39
60307;BME280;46155;52.364;6.580;2023-07-13T08:43:14;101274.00;;;20.37;93.32
60307;BME280;46155;52.364;6.580;2023-07-13T08:46:09;101276.28;;;20.23;94.10
60307;BME280;46155;52.364;6.580;2023-07-13T08:48:45;101270.03;;;20.23;94.21
60307;BME280;46155;52.364;6.580;2023-07-13T08:51:35;101271.81;;;20.22;95.66
60307;BME280;46155;52.364;6.580;2023-07-13T08:54:08;101267.44;;;20.24;96.31
60307;BME280;46155;52.364;6.580;2023-07-13T08:56:36;101258.81;;;20.35;96.06
60307;BME280;46155;52.364;6.580;2023-07-13T08:59:11;101261.03;;;20.51;96.78
60307;BME280;46155;52.364;6.580;2023-07-13T09:04:36;101256.25;;;20.70;93.84
60307;BME280;46155;52.364;6.580;2023-07-13T09:09:58;101256.88;;;20.94;92.45
60307;BME280;46155;52.364;6.580;2023-07-13T09:15:31;101257.34;;;21.13;91.96
60307;BME280;46155;52.364;6.580;2023-07-13T09:18:01;101259.63;;;20.97;88.91
60307;BME280;46155;52.364;6.580;2023-07-13T09:20:34;101267.16;;;20.79;89.56
60307;BME280;46155;52.364;6.580;2023-07-13T09:23:05;101268.19;;;20.52;91.63
60307;BME280;46155;52.364;6.580;2023-07-13T09:25:34;101253.94;;;20.20;92.00
60307;BME280;46155;52.364;6.580;2023-07-13T09:28:13;101261.25;;;19.95;93.45
60307;BME280;46155;52.364;6.580;2023-07-13T09:30:51;101265.41;;;19.85;94.60
60307;BME280;46155;52.364;6.580;2023-07-13T09:33:19;101262.56;;;19.79;96.48
60307;BME280;46155;52.364;6.580;2023-07-13T09:35:44;101266.94;;;19.78;95.23
60307;BME280;46155;52.364;6.580;2023-07-13T09:38:18;101270.47;;;19.77;95.15
60307;BME280;46155;52.364;6.580;2023-07-13T09:40:56;101274.09;;;19.80;93.88
60307;BME280;46155;52.364;6.580;2023-07-13T09:43:24;101273.47;;;19.88;93.98
60307;BME280;46155;52.364;6.580;2023-07-13T09:45:50;101265.00;;;20.02;94.45
60307;BME280;46155;52.364;6.580;2023-07-13T09:48:17;101260.72;;;20.39;98.06
60307;BME280;46155;52.364;6.580;2023-07-13T09:50:43;101261.16;;;20.54;94.11
60307;BME280;46155;52.364;6.580;2023-07-13T09:53:17;101252.03;;;20.79;92.13
60307;BME280;46155;52.364;6.580;2023-07-13T09:55:45;101256.19;;;21.02;90.00
60307;BME280;46155;52.364;6.580;2023-07-13T10:00:36;101258.91;;;21.05;86.50
60307;BME280;46155;52.364;6.580;2023-07-13T10:05:38;101269.38;;;20.63;84.62
60307;BME280;46155;52.364;6.580;2023-07-13T10:08:04;101275.00;;;20.41;86.04
60307;BME280;46155;52.364;6.580;2023-07-13T10:10:33;101270.66;;;20.14;86.82
60307;BME280;46155;52.364;6.580;2023-07-13T10:13:01;101271.94;;;19.97;88.59
60307;BME280;46155;52.364;6.580;2023-07-13T10:15:27;101271.28;;;19.75;89.80
60307;BME280;46155;52.364;6.580;2023-07-13T10:17:54;101282.28;;;19.86;93.10
60307;BME280;46155;52.364;6.580;2023-07-13T10:20:21;101279.19;;;20.01;91.64
60307;BME280;46155;52.364;6.580;2023-07-13T10:23:00;101282.69;;;20.00;90.06
60307;BME280;46155;52.364;6.580;2023-07-13T10:25:31;101289.63;;;19.94;93.09
60307;BME280;46155;52.364;6.580;2023-07-13T10:28:06;101298.66;;;19.71;93.10
60307;BME280;46155;52.364;6.580;2023-07-13T10:30:40;101293.69;;;19.54;96.42
60307;BME280;46155;52.364;6.580;2023-07-13T10:33:10;101313.59;;;19.38;99.46
60307;BME280;46155;52.364;6.580;2023-07-13T10:35:39;101328.03;;;19.19;100.00
60307;BME280;46155;52.364;6.580;2023-07-13T10:38:11;101335.94;;;18.90;100.00
60307;BME280;46155;52.364;6.580;2023-07-13T10:40:43;101336.19;;;18.74;100.00
60307;BME280;46155;52.364;6.580;2023-07-13T10:43:24;101334.13;;;18.65;100.00
60307;BME280;46155;52.364;6.580;2023-07-13T10:45:53;101333.44;;;18.71;100.00
60307;BME280;46155;52.364;6.580;2023-07-13T10:48:20;101337.97;;;18.98;100.00
60307;BME280;46155;52.364;6.580;2023-07-13T10:50:50;101345.94;;;19.23;100.00
60307;BME280;46155;52.364;6.580;2023-07-13T11:03:29;101345.59;;;20.23;100.00
60307;BME280;46155;52.364;6.580;2023-07-13T11:06:16;101337.50;;;20.20;100.00
60307;BME280;46155;52.364;6.580;2023-07-13T11:14:00;101326.47;;;20.08;100.00
60307;BME280;46155;52.364;6.580;2023-07-13T11:16:43;101327.53;;;20.13;100.00
60307;BME280;46155;52.364;6.580;2023-07-13T11:25:26;101322.34;;;20.50;100.00
60307;BME280;46155;52.364;6.580;2023-07-13T11:31:01;101318.72;;;20.78;100.00
60307;BME280;46155;52.364;6.580;2023-07-13T11:33:51;101320.44;;;20.76;98.81
60307;BME280;46155;52.364;6.580;2023-07-13T11:36:19;101324.16;;;20.51;98.01
60307;BME280;46155;52.364;6.580;2023-07-13T11:39:16;101325.56;;;20.38;98.96
60307;BME280;46155;52.364;6.580;2023-07-13T11:41:48;101325.13;;;20.22;99.98
60307;BME280;46155;52.364;6.580;2023-07-13T11:44:17;101341.19;;;20.25;98.00
60307;BME280;46155;52.364;6.580;2023-07-13T11:46:55;101339.16;;;20.17;96.79
60307;BME280;46155;52.364;6.580;2023-07-13T11:49:24;101339.72;;;20.05;96.04
60307;BME280;46155;52.364;6.580;2023-07-13T11:51:50;101347.03;;;20.12;99.98
60307;BME280;46155;52.364;6.580;2023-07-13T11:56:48;101341.16;;;20.54;97.72
60307;BME280;46155;52.364;6.580;2023-07-13T11:59:14;101331.78;;;20.67;91.39
60307;BME280;46155;52.364;6.580;2023-07-13T12:01:45;101334.91;;;20.84;88.68
60307;BME280;46155;52.364;6.580;2023-07-13T12:04:32;101336.69;;;20.85;87.67
60307;BME280;46155;52.364;6.580;2023-07-13T12:07:16;101342.22;;;20.91;89.70
60307;BME280;46155;52.364;6.580;2023-07-13T12:09:42;101336.19;;;20.98;90.28
60307;BME280;46155;52.364;6.580;2023-07-13T12:12:17;101335.47;;;21.06;87.73
60307;BME280;46155;52.364;6.580;2023-07-13T12:14:43;101343.81;;;21.18;87.45
60307;BME280;46155;52.364;6.580;2023-07-13T12:17:15;101361.75;;;21.24;81.18
60307;BME280;46155;52.364;6.580;2023-07-13T12:19:41;101374.34;;;21.29;79.38
60307;BME280;46155;52.364;6.580;2023-07-13T12:22:12;101366.16;;;20.88;80.67
60307;BME280;46155;52.364;6.580;2023-07-13T12:24:40;101376.53;;;20.47;85.32
60307;BME280;46155;52.364;6.580;2023-07-13T12:29:49;101351.34;;;19.52;90.26
60307;BME280;46155;52.364;6.580;2023-07-13T12:32:17;101350.31;;;19.21;93.04
60307;BME280;46155;52.364;6.580;2023-07-13T12:35:12;101358.00;;;19.14;97.22
60307;BME280;46155;52.364;6.580;2023-07-13T12:37:42;101369.63;;;19.16;97.99
60307;BME280;46155;52.364;6.580;2023-07-13T12:40:14;101397.00;;;19.12;96.14
60307;BME280;46155;52.364;6.580;2023-07-13T12:42:40;101395.31;;;18.89;99.70
60307;BME280;46155;52.364;6.580;2023-07-13T12:45:18;101405.28;;;18.72;100.00
60307;BME280;46155;52.364;6.580;2023-07-13T12:47:48;101399.97;;;18.48;100.00
60307;BME280;46155;52.364;6.580;2023-07-13T12:50:20;101411.59;;;18.28;100.00
60307;BME280;46155;52.364;6.580;2023-07-13T12:53:02;101414.25;;;18.05;100.00
60307;BME280;46155;52.364;6.580;2023-07-13T12:55:29;101403.13;;;17.93;100.00
60307;BME280;46155;52.364;6.580;2023-07-13T12:57:58;101409.97;;;17.87;100.00
60307;BME280;46155;52.364;6.580;2023-07-13T13:03:02;101406.28;;;17.84;100.00
60307;BME280;46155;52.364;6.580;2023-07-13T13:05:30;101394.03;;;17.87;100.00
60307;BME280;46155;52.364;6.580;2023-07-13T13:07:55;101396.16;;;17.95;100.00
60307;BME280;46155;52.364;6.580;2023-07-13T13:10:21;101389.84;;;18.15;100.00
60307;BME280;46155;52.364;6.580;2023-07-13T13:12:47;101392.28;;;18.32;100.00
60307;BME280;46155;52.364;6.580;2023-07-13T13:15:13;101393.69;;;18.46;100.00
60307;BME280;46155;52.364;6.580;2023-07-13T13:17:38;101395.13;;;18.61;100.00
60307;BME280;46155;52.364;6.580;2023-07-13T13:20:14;101392.00;;;18.72;100.00
60307;BME280;46155;52.364;6.580;2023-07-13T13:22:41;101392.41;;;18.83;100.00
60307;BME280;46155;52.364;6.580;2023-07-13T13:25:10;101391.97;;;18.95;100.00
60307;BME280;46155;52.364;6.580;2023-07-13T13:27:35;101387.03;;;19.06;100.00
60307;BME280;46155;52.364;6.580;2023-07-13T13:30:02;101388.84;;;19.07;100.00
60307;BME280;46155;52.364;6.580;2023-07-13T13:32:27;101393.31;;;19.08;100.00
60307;BME280;46155;52.364;6.580;2023-07-13T13:34:53;101392.69;;;19.15;100.00
60307;BME280;46155;52.364;6.580;2023-07-13T13:37:28;101400.78;;;19.18;100.00
60307;BME280;46155;52.364;6.580;2023-07-13T13:39:53;101398.72;;;19.09;100.00
60307;BME280;46155;52.364;6.580;2023-07-13T13:42:20;101405.66;;;19.06;100.00
60307;BME280;46155;52.364;6.580;2023-07-13T13:44:49;101402.16;;;19.07;100.00
60307;BME280;46155;52.364;6.580;2023-07-13T13:47:41;101403.16;;;19.10;100.00
60307;BME280;46155;52.364;6.580;2023-07-13T13:50:16;101403.75;;;19.27;100.00
60307;BME280;46155;52.364;6.580;2023-07-13T13:52:42;101397.59;;;19.29;100.00
60307;BME280;46155;52.364;6.580;2023-07-13T13:55:18;101400.97;;;19.24;100.00
60307;BME280;46155;52.364;6.580;2023-07-13T13:57:45;101403.78;;;19.03;100.00
60307;BME280;46155;52.364;6.580;2023-07-13T14:00:11;101405.06;;;19.15;100.00
60307;BME280;46155;52.364;6.580;2023-07-13T14:02:40;101403.00;;;19.32;100.00
60307;BME280;46155;52.364;6.580;2023-07-13T14:05:09;101394.69;;;19.48;100.00
60307;BME280;46155;52.364;6.580;2023-07-13T14:07:35;101402.84;;;19.53;100.00
60307;BME280;46155;52.364;6.580;2023-07-13T14:10:01;101388.06;;;19.63;100.00
60307;BME280;46155;52.364;6.580;2023-07-13T14:12:27;101382.75;;;19.63;100.00
60307;BME280;46155;52.364;6.580;2023-07-13T14:14:54;101397.84;;;19.89;100.00
60307;BME280;46155;52.364;6.580;2023-07-13T14:17:23;101398.25;;;20.02;100.00
60307;BME280;46155;52.364;6.580;2023-07-13T14:19:51;101393.00;;;20.05;100.00
60307;BME280;46155;52.364;6.580;2023-07-13T14:22:20;101400.53;;;20.18;100.00
60307;BME280;46155;52.364;6.580;2023-07-13T14:24:46;101386.34;;;20.19;100.00
60307;BME280;46155;52.364;6.580;2023-07-13T14:27:12;101392.56;;;20.20;100.00
60307;BME280;46155;52.364;6.580;2023-07-13T14:29:38;101397.47;;;20.06;100.00
60307;BME280;46155;52.364;6.580;2023-07-13T14:32:04;101392.22;;;20.07;100.00
60307;BME280;46155;52.364;6.580;2023-07-13T14:34:30;101393.78;;;20.01;100.00
60307;BME280;46155;52.364;6.580;2023-07-13T14:36:55;101386.53;;;19.97;99.19
60307;BME280;46155;52.364;6.580;2023-07-13T14:39:23;101386.53;;;19.97;97.73
60307;BME280;46155;52.364;6.580;2023-07-13T14:41:51;101391.06;;;19.99;100.00
60307;BME280;46155;52.364;6.580;2023-07-13T14:44:19;101388.31;;;19.96;100.00
60307;BME280;46155;52.364;6.580;2023-07-13T14:46:45;101386.28;;;19.89;100.00
60307;BME280;46155;52.364;6.580;2023-07-13T14:49:21;101385.47;;;19.91;100.00
60307;BME280;46155;52.364;6.580;2023-07-13T14:51:49;101384.56;;;19.91;100.00
60307;BME280;46155;52.364;6.580;2023-07-13T14:54:14;101379.34;;;19.94;100.00
60307;BME280;46155;52.364;6.580;2023-07-13T14:56:40;101377.25;;;19.84;98.41
60307;BME280;46155;52.364;6.580;2023-07-13T14:59:05;101370.91;;;19.80;98.56
60307;BME280;46155;52.364;6.580;2023-07-13T15:01:33;101371.00;;;19.83;96.84
60307;BME280;46155;52.364;6.580;2023-07-13T15:03:59;101379.25;;;19.91;94.90
60307;BME280;46155;52.364;6.580;2023-07-13T15:06:25;101386.44;;;19.93;95.76
60307;BME280;46155;52.364;6.580;2023-07-13T15:08:50;101384.03;;;20.03;100.00
60307;BME280;46155;52.364;6.580;2023-07-13T15:11:16;101389.28;;;20.00;95.70
60307;BME280;46155;52.364;6.580;2023-07-13T15:13:41;101379.19;;;19.89;99.56
60307;BME280;46155;52.364;6.580;2023-07-13T15:16:18;101380.59;;;19.78;97.15
60307;BME280;46155;52.364;6.580;2023-07-13T15:18:46;101375.25;;;19.78;97.13
60307;BME280;46155;52.364;6.580;2023-07-13T15:21:17;101388.03;;;19.88;97.30
60307;BME280;46155;52.364;6.580;2023-07-13T15:23:44;101387.19;;;19.89;96.73
60307;BME280;46155;52.364;6.580;2023-07-13T15:26:14;101387.59;;;20.02;100.00
60307;BME280;46155;52.364;6.580;2023-07-13T15:28:41;101383.88;;;19.97;100.00
60307;BME280;46155;52.364;6.580;2023-07-13T15:31:23;101382.03;;;19.95;100.00
60307;BME280;46155;52.364;6.580;2023-07-13T15:33:51;101380.63;;;20.07;100.00
60307;BME280;46155;52.364;6.580;2023-07-13T15:36:18;101378.75;;;20.04;100.00
60307;BME280;46155;52.364;6.580;2023-07-13T15:38:45;101377.75;;;19.99;100.00
60307;BME280;46155;52.364;6.580;2023-07-13T15:41:24;101381.56;;;19.80;95.71
60307;BME280;46155;52.364;6.580;2023-07-13T15:43:52;101386.97;;;19.83;100.00
60307;BME280;46155;52.364;6.580;2023-07-13T15:46:22;101391.56;;;19.87;100.00
60307;BME280;46155;52.364;6.580;2023-07-13T15:48:49;101388.88;;;19.87;100.00
60307;BME280;46155;52.364;6.580;2023-07-13T15:51:24;101383.41;;;19.83;96.61
60307;BME280;46155;52.364;6.580;2023-07-13T15:53:53;101381.06;;;19.92;97.22
60307;BME280;46155;52.364;6.580;2023-07-13T15:56:23;101386.41;;;19.92;93.05
60307;BME280;46155;52.364;6.580;2023-07-13T15:58:50;101381.88;;;19.89;89.36
60307;BME280;46155;52.364;6.580;2023-07-13T16:01:16;101387.28;;;19.92;89.33
60307;BME280;46155;52.364;6.580;2023-07-13T16:03:41;101384.63;;;19.92;93.58
60307;BME280;46155;52.364;6.580;2023-07-13T16:06:31;101398.88;;;19.94;97.98
60307;BME280;46155;52.364;6.580;2023-07-13T16:09:01;101398.84;;;19.93;97.31
60307;BME280;46155;52.364;6.580;2023-07-13T16:11:32;101390.81;;;19.91;100.00
60307;BME280;46155;52.364;6.580;2023-07-13T16:13:58;101385.47;;;19.91;100.00
60307;BME280;46155;52.364;6.580;2023-07-13T16:16:33;101396.13;;;19.91;100.00
60307;BME280;46155;52.364;6.580;2023-07-13T16:19:00;101388.56;;;19.78;100.00
60307;BME280;46155;52.364;6.580;2023-07-13T16:21:28;101390.19;;;19.73;97.63
60307;BME280;46155;52.364;6.580;2023-07-13T16:23:55;101388.53;;;19.76;97.10
60307;BME280;46155;52.364;6.580;2023-07-13T16:28:49;101391.00;;;19.98;96.92
60307;BME280;46155;52.364;6.580;2023-07-13T16:31:14;101391.00;;;19.98;95.63
60307;BME280;46155;52.364;6.580;2023-07-13T16:33:40;101400.75;;;19.97;97.01
60307;BME280;46155;52.364;6.580;2023-07-13T16:36:10;101398.88;;;19.94;96.65
60307;BME280;46155;52.364;6.580;2023-07-13T16:38:36;101397.16;;;19.95;94.83